Time;durP1;ratioP1;P1;durP2;ratioP2;P2;SDS_P1;SDS_P2;PMS_P1;PMS_P2;Temp;Humidity;BMP_temperature;BMP_pressure;BME280_temperature;BME280_humidity;BME280_pressure;Samples;Min_cycle;Max_cycle;Signal;HPM_P1;HPM_P2
2023/04/20 00:00:20;;;;;;;;;;;;;;;;;;5067451;28;42818;-78
2023/04/20 00:02:46;;;;;;;;;;;;;;;;;;5067647;28;43176;-79
2023/04/20 00:05:12;;;;;;;;;;;;;;;;;;5067780;28;43016;-78
2023/04/20 00:07:40;;;;;;;;;;;;;;;;;;5067888;28;43370;-78
2023/04/20 00:10:06;;;;;;;;;;;;;;;;;;5066531;28;42921;-79
2023/04/20 00:12:32;;;;;;;;;;;;;;;;;;5066339;28;44997;-79
2023/04/20 00:14:57;;;;;;;;;;;19.90;50.30;;;;;;5067478;28;42961;-78
2023/04/20 00:17:23;;;;;;;;;;;19.80;50.20;;;;;;5067345;28;43034;-79
2023/04/20 00:19:48;;;;;;;;;;;20.00;50.20;;;;;;5068300;28;42989;-78
2023/04/20 00:22:14;;;;;;;;;;;;;;;;;;5067644;28;43028;-79
2023/04/20 00:24:40;;;;;;;;;;;;;;;;;;5068153;28;43135;-79
2023/04/20 00:27:06;;;;;;;;;;;;;;;;;;5068002;28;43697;-79
2023/04/20 00:29:32;;;;;;;;;;;;;;;;;;5068187;28;43016;-79
2023/04/20 00:31:57;;;;;;;;;;;19.90;50.20;;;;;;5067688;28;42812;-81
2023/04/20 00:34:23;;;;;;;;;;;20.00;50.10;;;;;;5067405;28;42906;-80
2023/04/20 00:36:48;;;;;;;;;;;19.90;49.70;;;;;;5067291;28;42808;-78
2023/04/20 00:39:15;;;;;;;;;;;;;;;;;;5067159;28;42932;-80
2023/04/20 00:41:40;;;;;;;;;;;20.10;49.90;;;;;;5065832;28;43275;-78
2023/04/20 00:44:07;;;;;;;;;;;;;;;;;;5067025;28;42954;-79
2023/04/20 00:46:32;;;;;;;;;;;19.90;49.70;;;;;;5066845;28;42986;-80
2023/04/20 00:48:58;;;;;;;;;;;;;;;;;;5067230;28;43235;-80
2023/04/20 00:51:24;;;;;;;;;;;;;;;;;;5066841;28;42916;-82
2023/04/20 00:53:50;;;;;;;;;;;;;;;;;;5067680;28;42933;-80
2023/04/20 00:56:16;;;;;;;;;;;;;;;;;;5067956;28;43756;-78
2023/04/20 00:58:42;;;;;;;;;;;20.00;50.40;;;;;;5067268;28;43080;-78
2023/04/20 01:01:08;;;;;;;;;;;;;;;;;;5066741;28;43589;-78
2023/04/20 01:03:34;;;;;;;;;;;;;;;;;;5067299;28;42758;-78
2023/04/20 01:06:00;;;;;;;;;;;;;;;;;;5067065;28;44762;-78
2023/04/20 01:08:26;;;;;;;;;;;;;;;;;;5067448;28;43211;-78
2023/04/20 01:10:52;;;;;;;;;;;;;;;;;;5067048;28;43851;-78
2023/04/20 01:13:18;;;;;;;;;;;;;;;;;;5065782;28;43102;-78
2023/04/20 01:15:44;;;;;;;;;;;;;;;;;;5067248;28;42950;-78
2023/04/20 01:18:10;;;;;;;;;;;;;;;;;;5067519;28;43122;-78
2023/04/20 01:20:36;;;;;;;;;;;;;;;;;;5066621;28;43042;-78
2023/04/20 01:23:02;;;;;;;;;;;;;;;;;;5066994;28;43079;-78
2023/04/20 01:25:28;;;;;;;;;;;;;;;;;;5066541;28;43474;-79
2023/04/20 01:27:54;;;;;;;;;;;;;;;;;;5066640;28;42944;-79
2023/04/20 01:30:20;;;;;;;;;;;;;;;;;;5066030;28;43524;-80
2023/04/20 01:32:45;;;;;;;;;;;19.90;50.40;;;;;;5066363;28;42826;-80
2023/04/20 01:35:11;;;;;;;;;;;19.90;50.50;;;;;;5066420;28;43073;-80
2023/04/20 01:37:37;;;;;;;;;;;;;;;;;;5066499;28;42942;-79
2023/04/20 01:40:03;;;;;;;;;;;19.80;50.40;;;;;;5066941;28;42805;-79
2023/04/20 01:42:29;;;;;;;;;;;;;;;;;;5066163;28;42878;-79
2023/04/20 01:44:55;;;;;;;;;;;;;;;;;;5066099;28;43286;-80
2023/04/20 01:47:20;;;;;;;;;;;19.80;50.40;;;;;;5066615;28;42945;-85
2023/04/20 01:49:46;;;;;;;;;;;;;;;;;;5066596;28;43792;-85
2023/04/20 01:52:12;;;;;;;;;;;;;;;;;;5067072;28;43151;-78
2023/04/20 01:54:38;;;;;;;;;;;;;;;;;;5066724;28;43742;-79
2023/04/20 01:57:04;;;;;;;;;;;;;;;;;;5066864;28;42902;-79
2023/04/20 01:59:29;;;;;;;;;;;20.00;50.50;;;;;;5066354;28;43492;-79
2023/04/20 02:01:55;;;;;;;;;;;19.90;50.40;;;;;;5066613;28;42750;-80
2023/04/20 02:04:21;;;;;;;;;;;19.90;50.40;;;;;;5066617;28;43638;-80
2023/04/20 02:06:46;;;;;;;;;;;20.00;50.20;;;;;;5066406;28;42975;-80
2023/04/20 02:09:12;;;;;;;;;;;;;;;;;;5065565;28;43301;-80
2023/04/20 02:11:38;;;;;;;;;;;;;;;;;;5065343;28;43013;-84
2023/04/20 02:14:04;;;;;;;;;;;;;;;;;;5064702;28;43005;-83
2023/04/20 02:16:30;;;;;;;;;;;;;;;;;;5065960;28;43262;-79
2023/04/20 02:18:56;;;;;;;;;;;;;;;;;;5065700;28;43289;-80
2023/04/20 02:21:22;;;;;;;;;;;;;;;;;;5066380;28;43038;-84
2023/04/20 02:23:47;;;;;;;;;;;20.00;50.50;;;;;;5066568;28;43483;-85
2023/04/20 02:26:13;;;;;;;;;;;19.70;50.50;;;;;;5065853;28;42995;-84
2023/04/20 02:28:39;;;;;;;;;;;20.00;50.70;;;;;;5066022;28;43045;-84
2023/04/20 02:31:04;;;;;;;;;;;20.00;50.30;;;;;;5064277;28;42944;-85
2023/04/20 02:33:30;;;;;;;;;;;;;;;;;;5065952;28;42972;-85
2023/04/20 02:35:56;;;;;;;;;;;;;;;;;;5066482;28;43161;-85
2023/04/20 02:38:22;;;;;;;;;;;;;;;;;;5065876;28;42959;-85
2023/04/20 02:40:48;;;;;;;;;;;;;;;;;;5066087;28;42870;-85
2023/04/20 02:43:14;;;;;;;;;;;;;;;;;;5065833;28;42824;-83
2023/04/20 02:45:40;;;;;;;;;;;;;;;;;;5065575;28;43060;-85
2023/04/20 02:48:06;;;;;;;;;;;;;;;;;;5066012;28;43043;-86
2023/04/20 02:50:32;;;;;;;;;;;;;;;;;;5065696;28;42943;-84
2023/04/20 02:52:58;;;;;;;;;;;;;;;;;;5065715;28;43476;-84
2023/04/20 02:55:24;;;;;;;;;;;;;;;;;;5064788;28;42842;-82
2023/04/20 02:57:49;;;;;;;;;;;20.10;50.60;;;;;;5065229;28;43518;-85
2023/04/20 03:00:15;;;;;;;;;;;19.90;50.60;;;;;;5065329;28;43048;-84
2023/04/20 03:02:40;;;;;;;;;;;20.00;50.60;;;;;;5065085;28;42820;-85
2023/04/20 03:05:06;;;;;;;;;;;;;;;;;;5063762;28;42907;-85
2023/04/20 03:07:33;;;;;;;;;;;;;;;;;;5065534;28;43575;-85
2023/04/20 03:09:58;;;;;;;;;;;20.00;50.40;;;;;;5065415;28;42940;-85
2023/04/20 03:12:25;;;;;;;;;;;;;;;;;;5063526;28;43040;-84
2023/04/20 03:14:50;;;;;;;;;;;20.10;50.60;;;;;;5065431;28;42926;-85
2023/04/20 03:17:16;;;;;;;;;;;20.00;50.10;;;;;;5063388;28;42982;-85
2023/04/20 03:19:42;;;;;;;;;;;;;;;;;;5064842;28;43154;-85
2023/04/20 03:22:08;;;;;;;;;;;;;;;;;;5063796;28;42923;-86
2023/04/20 03:24:34;;;;;;;;;;;;;;;;;;5065378;28;42838;-86
2023/04/20 03:27:00;;;;;;;;;;;;;;;;;;5065341;28;42909;-84
2023/04/20 03:29:26;;;;;;;;;;;;;;;;;;5064534;28;42902;-79
2023/04/20 03:31:52;;;;;;;;;;;;;;;;;;5064676;28;42864;-78
2023/04/20 03:34:18;;;;;;;;;;;;;;;;;;5064496;28;42940;-78
2023/04/20 03:36:44;;;;;;;;;;;;;;;;;;5064403;28;43701;-79
2023/04/20 03:39:10;;;;;;;;;;;;;;;;;;5064717;28;42932;-78
2023/04/20 03:41:36;;;;;;;;;;;;;;;;;;5064721;28;43362;-80
2023/04/20 03:44:02;;;;;;;;;;;;;;;;;;5065332;28;42906;-78
2023/04/20 03:46:27;;;;;;;;;;;20.00;50.20;;;;;;5064865;28;43886;-78
2023/04/20 03:48:53;;;;;;;;;;;20.00;50.40;;;;;;5063287;28;43223;-79
2023/04/20 03:51:18;;;;;;;;;;;19.90;50.10;;;;;;5064481;28;43415;-79
2023/04/20 03:53:44;;;;;;;;;;;;;;;;;;5064548;28;42989;-79
2023/04/20 03:56:10;;;;;;;;;;;;;;;;;;5063646;28;42893;-81
2023/04/20 03:58:36;;;;;;;;;;;;;;;;;;5064262;28;42997;-80
2023/04/20 04:01:02;;;;;;;;;;;;;;;;;;5062484;28;43336;-80
2023/04/20 04:03:29;;;;;;;;;;;;;;;;;;5064891;28;42893;-79
2023/04/20 04:05:54;;;;;;;;;;;20.10;50.00;;;;;;5062664;28;43951;-78
2023/04/20 04:08:20;;;;;;;;;;;;;;;;;;5064029;28;42882;-79
2023/04/20 04:10:46;;;;;;;;;;;;;;;;;;5060691;28;44271;-83
2023/04/20 04:13:12;;;;;;;;;;;;;;;;;;5063294;28;42982;-79
2023/04/20 04:15:38;;;;;;;;;;;;;;;;;;5063002;28;42917;-77
2023/04/20 04:18:04;;;;;;;;;;;;;;;;;;5063145;28;43086;-80
2023/04/20 04:20:29;;;;;;;;;;;20.10;50.30;;;;;;5063131;28;42786;-78
2023/04/20 04:22:56;;;;;;;;;;;19.90;50.50;;;;;;5063194;28;43030;-79
2023/04/20 04:25:22;;;;;;;;;;;;;;;;;;5060084;28;43100;-78
2023/04/20 04:27:47;;;;;;;;;;;20.10;50.60;;;;;;5063453;28;43100;-78
2023/04/20 04:30:13;;;;;;;;;;;20.20;50.60;;;;;;5061138;28;43050;-79
2023/04/20 04:32:38;;;;;;;;;;;20.10;50.50;;;;;;5063286;28;42984;-79
2023/04/20 04:35:04;;;;;;;;;;;;;;;;;;5065886;28;43132;-81
2023/04/20 04:37:30;;;;;;;;;;;;;;;;;;5066020;28;43064;-84
2023/04/20 04:39:57;;;;;;;;;;;;;;;;;;5066084;28;42894;-80
2023/04/20 04:42:23;;;;;;;;;;;20.00;50.20;;;;;;5064953;28;42974;-84
2023/04/20 04:44:51;;;;;;;;;;;;;;;;;;5066090;28;43100;-85
2023/04/20 04:47:18;;;;;;;;;;;;;;;;;;5064839;28;42866;-83
2023/04/20 04:49:44;;;;;;;;;;;;;;;;;;5064620;28;42986;-79
2023/04/20 04:52:10;;;;;;;;;;;;;;;;;;5067315;28;43098;-80
2023/04/20 04:54:36;;;;;;;;;;;;;;;;;;5062937;28;43107;-81
2023/04/20 04:57:02;;;;;;;;;;;;;;;;;;5065693;28;43022;-82
2023/04/20 04:59:28;;;;;;;;;;;;;;;;;;5064628;28;43669;-84
2023/04/20 05:01:54;;;;;;;;;;;;;;;;;;5063878;28;43020;-80
2023/04/20 05:04:20;;;;;;;;;;;;;;;;;;5064705;28;43524;-79
2023/04/20 05:06:45;;;;;;;;;;;20.10;50.90;;;;;;5063038;28;42988;-80
2023/04/20 05:09:11;;;;;;;;;;;20.00;51.00;;;;;;5065309;28;42939;-79
2023/04/20 05:11:37;;;;;;;;;;;;;;;;;;5065969;28;42919;-79
2023/04/20 05:14:02;;;;;;;;;;;20.10;50.90;;;;;;5064775;28;42910;-78
2023/04/20 05:16:28;;;;;;;;;;;;;;;;;;5065708;28;42983;-78
2023/04/20 05:18:54;;;;;;;;;;;;;;;;;;5066667;28;42857;-78
2023/04/20 05:21:20;;;;;;;;;;;;;;;;;;5063811;28;43053;-79
2023/04/20 05:23:46;;;;;;;;;;;;;;;;;;5066033;28;42951;-79
2023/04/20 05:26:12;;;;;;;;;;;;;;;;;;5064343;28;43074;-85
2023/04/20 05:28:38;;;;;;;;;;;;;;;;;;5065662;28;43654;-82
2023/04/20 05:31:03;;;;;;;;;;;20.00;51.10;;;;;;5064802;28;43180;-87
2023/04/20 05:33:29;;;;;;;;;;;20.10;51.10;;;;;;5063141;28;42969;-86
2023/04/20 05:35:55;;;;;;;;;;;;;;;;;;5063960;28;42897;-87
2023/04/20 05:38:21;;;;;;;;;;;;;;;;;;5065961;28;43121;-85
2023/04/20 05:40:46;;;;;;;;;;;20.10;51.10;;;;;;5064842;28;43031;-87
2023/04/20 05:43:12;;;;;;;;;;;;;;;;;;5065371;28;43459;-80
2023/04/20 05:45:38;;;;;;;;;;;;;;;;;;5060096;28;43006;-87
2023/04/20 05:48:04;;;;;;;;;;;;;;;;;;5064448;28;42933;-88
2023/04/20 05:50:30;;;;;;;;;;;;;;;;;;5061721;28;43023;-84
2023/04/20 05:52:56;;;;;;;;;;;;;;;;;;5063765;28;43118;-86
2023/04/20 05:55:22;;;;;;;;;;;;;;;;;;5065086;28;43157;-85
2023/04/20 05:57:48;;;;;;;;;;;;;;;;;;5063098;28;43495;-84
2023/04/20 06:00:14;;;;;;;;;;;;;;;;;;5059219;28;42969;-82
2023/04/20 06:02:40;;;;;;;;;;;;;;;;;;5059802;28;43610;-82
2023/04/20 06:05:06;;;;;;;;;;;;;;;;;;5045907;28;42854;-86
2023/04/20 06:07:32;;;;;;;;;;;;;;;;;;5045783;28;42907;-85
2023/04/20 06:09:59;;;;;;;;;;;;;;;;;;5059231;28;42924;-90
2023/04/20 06:12:25;;;;;;;;;;;;;;;;;;5064244;28;43743;-89
2023/04/20 06:14:51;;;;;;;;;;;19.80;51.30;;;;;;5063586;28;43261;-87
2023/04/20 06:17:17;;;;;;;;;;;;;;;;;;5064785;28;42953;-88
2023/04/20 06:19:42;;;;;;;;;;;;;;;;;;5064700;28;42960;-91
2023/04/20 06:22:08;;;;;;;;;;;;;;;;;;5064158;28;42909;-91
2023/04/20 06:24:34;;;;;;;;;;;;;;;;;;5064250;28;42932;-91
2023/04/20 06:27:01;;;;;;;;;;;;;;;;;;5066139;28;42901;-90
2023/04/20 06:29:27;;;;;;;;;;;19.90;51.80;;;;;;5066214;28;42873;-92
2023/04/20 06:31:53;;;;;;;;;;;19.70;51.70;;;;;;5066278;28;43008;-89
2023/04/20 06:34:18;;;;;;;;;;;19.80;51.50;;;;;;5065873;28;42819;-90
2023/04/20 06:36:44;;;;;;;;;;;19.70;51.70;;;;;;5066314;28;43272;-91
2023/04/20 06:39:13;;;;;;;;;;;;;;;;;;5066439;28;42871;-88
2023/04/20 06:41:38;;;;;;;;;;;19.80;51.60;;;;;;5065395;28;43790;-92
2023/04/20 06:44:04;;;;;;;;;;;;;;;;;;5066059;28;42962;-83
2023/04/20 06:46:30;;;;;;;;;;;;;;;;;;5065809;28;42806;-93
2023/04/20 06:48:57;;;;;;;;;;;;;;;;;;5065773;28;42751;-90
2023/04/20 06:51:23;;;;;;;;;;;19.80;51.60;;;;;;5066112;28;42870;-90
2023/04/20 06:53:49;;;;;;;;;;;;;;;;;;5066042;28;43046;-86
2023/04/20 06:56:14;;;;;;;;;;;19.90;51.70;;;;;;5066232;28;42802;-91
2023/04/20 06:58:40;;;;;;;;;;;19.90;51.40;;;;;;5065583;28;42905;-90
2023/04/20 07:01:06;;;;;;;;;;;;;;;;;;5065641;28;43559;-89
2023/04/20 07:03:32;;;;;;;;;;;;;;;;;;5066096;28;42826;-88
2023/04/20 07:05:58;;;;;;;;;;;;;;;;;;5064331;28;45281;-83
2023/04/20 07:08:24;;;;;;;;;;;;;;;;;;5065940;28;42936;-90
2023/04/20 07:10:50;;;;;;;;;;;;;;;;;;5065692;28;43718;-90
2023/04/20 07:13:16;;;;;;;;;;;;;;;;;;5066243;28;42772;-91
2023/04/20 07:15:44;;;;;;;;;;;;;;;;;;5065583;28;42940;-90
2023/04/20 07:18:09;;;;;;;;;;;19.80;51.80;;;;;;5065974;28;42972;-90
2023/04/20 07:20:35;;;;;;;;;;;19.90;51.90;;;;;;5065743;28;42866;-90
2023/04/20 07:23:00;;;;;;;;;;;19.80;51.80;;;;;;5065363;28;42945;-92
2023/04/20 07:25:26;;;;;;;;;;;;;;;;;;5066313;28;43000;-90
2023/04/20 07:27:52;;;;;;;;;;;;;;;;;;5065644;28;42850;-89
2023/04/20 07:30:18;;;;;;;;;;;;;;;;;;5065137;28;43076;-89
2023/04/20 07:32:44;;;;;;;;;;;;;;;;;;5063746;28;43033;-91
2023/04/20 07:35:10;;;;;;;;;;;;;;;;;;5063848;28;44358;-89
2023/04/20 07:37:36;;;;;;;;;;;;;;;;;;5064430;28;42800;-87
2023/04/20 07:40:05;;;;;;;;;;;;;;;;;;5065596;28;44053;-91
2023/04/20 07:42:31;;;;;;;;;;;19.90;51.80;;;;;;5066501;28;42937;-91
2023/04/20 07:44:56;;;;;;;;;;;19.80;51.40;;;;;;5065400;28;42965;-91
2023/04/20 07:47:22;;;;;;;;;;;;;;;;;;5065543;28;43074;-91
2023/04/20 07:49:48;;;;;;;;;;;;;;;;;;5065109;28;43852;-91
2023/04/20 07:52:14;;;;;;;;;;;;;;;;;;5065810;28;43038;-91
2023/04/20 07:54:40;;;;;;;;;;;;;;;;;;5063596;28;44662;-89
2023/04/20 07:57:08;;;;;;;;;;;;;;;;;;5064112;28;43139;-88
2023/04/20 07:59:34;;;;;;;;;;;;;;;;;;5064237;28;43753;-81
2023/04/20 08:02:00;;;;;;;;;;;;;;;;;;5066181;28;42946;-90
2023/04/20 08:04:26;;;;;;;;;;;19.90;52.00;;;;;;5065802;28;42989;-86
2023/04/20 08:06:51;;;;;;;;;;;19.80;52.20;;;;;;5065084;28;42925;-89
2023/04/20 08:09:17;;;;;;;;;;;;;;;;;;5068580;28;44378;-91
2023/04/20 08:11:45;;;;;;;;;;;19.70;51.80;;;;;;5066782;28;43009;-90
2023/04/20 08:14:10;;;;;;;;;;;;;;;;;;5068019;28;44314;-81
2023/04/20 08:16:36;;;;;;;;;;;;;;;;;;5068416;28;42824;-82
2023/04/20 08:19:08;;;;;;;;;;;;;;;;;;5068430;28;43031;-80
2023/04/20 08:21:34;;;;;;;;;;;;;;;;;;5068489;28;43000;-80
2023/04/20 08:24:00;;;;;;;;;;;;;;;;;;5068456;28;42722;-79
2023/04/20 08:26:26;;;;;;;;;;;;;;;;;;5067509;28;43068;-83
2023/04/20 08:28:52;;;;;;;;;;;;;;;;;;5067945;28;42949;-86
2023/04/20 08:31:18;;;;;;;;;;;;;;;;;;5068345;28;42855;-79
2023/04/20 08:33:44;;;;;;;;;;;;;;;;;;5067974;28;43475;-79
2023/04/20 08:36:10;;;;;;;;;;;;;;;;;;5068105;28;42846;-85
2023/04/20 08:38:36;;;;;;;;;;;;;;;;;;5066390;28;44899;-82
2023/04/20 08:41:02;;;;;;;;;;;;;;;;;;5068137;28;42852;-91
2023/04/20 08:43:28;;;;;;;;;;;;;;;;;;5066636;28;44393;-79
2023/04/20 08:45:54;;;;;;;;;;;;;;;;;;5069861;28;42982;-90
2023/04/20 08:48:20;;;;;;;;;;;;;;;;;;5066075;28;43958;-89
2023/04/20 08:50:46;;;;;;;;;;;;;;;;;;5067473;28;42912;-90
2023/04/20 08:53:13;;;;;;;;;;;;;;;;;;5066169;28;45709;-81
2023/04/20 08:55:38;;;;;;;;;;;19.50;51.40;;;;;;5067196;28;42885;-80
2023/04/20 08:58:04;;;;;;;;;;;;;;;;;;5067093;28;42934;-78
2023/04/20 09:00:30;;;;;;;;;;;;;;;;;;5067370;28;43145;-87
2023/04/20 09:02:57;;;;;;;;;;;19.70;51.70;;;;;;5066019;28;42989;-88
2023/04/20 09:05:24;;;;;;;;;;;19.60;51.50;;;;;;5067324;28;42992;-80
2023/04/20 09:07:51;;;;;;;;;;;;;;;;;;5065017;28;44361;-78
2023/04/20 09:10:17;;;;;;;;;;;19.60;51.50;;;;;;5067464;28;42932;-89
2023/04/20 09:12:42;;;;;;;;;;;19.70;51.60;;;;;;5065824;28;44331;-86
2023/04/20 09:15:09;;;;;;;;;;;;;;;;;;5067435;28;42779;-81
2023/04/20 09:17:36;;;;;;;;;;;19.50;51.50;;;;;;5067382;28;43572;-81
2023/04/20 09:20:03;;;;;;;;;;;;;;;;;;5066084;28;42773;-82
2023/04/20 09:22:30;;;;;;;;;;;19.80;51.60;;;;;;5067522;28;43736;-77
2023/04/20 09:24:56;;;;;;;;;;;;;;;;;;5066900;28;42921;-79
2023/04/20 09:27:22;;;;;;;;;;;19.70;51.50;;;;;;5066619;28;43060;-84
2023/04/20 09:29:48;;;;;;;;;;;;;;;;;;5066979;28;42922;-81
2023/04/20 09:32:14;;;;;;;;;;;;;;;;;;5067209;28;43025;-81
2023/04/20 09:34:43;;;;;;;;;;;19.70;51.60;;;;;;5067588;28;42910;-88
2023/04/20 09:37:09;;;;;;;;;;;19.60;51.60;;;;;;5067018;28;43372;-79
2023/04/20 09:39:35;;;;;;;;;;;;;;;;;;5066963;28;42966;-90
2023/04/20 09:42:03;;;;;;;;;;;19.50;51.70;;;;;;5066500;28;43535;-89
2023/04/20 09:44:29;;;;;;;;;;;19.70;51.70;;;;;;5066644;28;42918;-88
2023/04/20 09:46:54;;;;;;;;;;;19.60;51.80;;;;;;5066741;28;43604;-89
2023/04/20 09:49:20;;;;;;;;;;;19.60;51.50;;;;;;5066747;28;43026;-90
2023/04/20 09:51:46;;;;;;;;;;;;;;;;;;5066721;28;42952;-89
2023/04/20 09:54:12;;;;;;;;;;;;;;;;;;5068070;28;42862;-89
2023/04/20 09:56:38;;;;;;;;;;;;;;;;;;5065868;28;43394;-89
2023/04/20 09:59:04;;;;;;;;;;;;;;;;;;5066067;28;43217;-90
2023/04/20 10:01:30;;;;;;;;;;;;;;;;;;5066342;28;43540;-90
2023/04/20 10:03:56;;;;;;;;;;;;;;;;;;5066469;28;42909;-90
2023/04/20 10:06:32;;;;;;;;;;;19.70;51.10;;;;;;5064862;28;43557;-88
2023/04/20 10:08:58;;;;;;;;;;;;;;;;;;5066993;28;43111;-86
2023/04/20 10:11:24;;;;;;;;;;;;;;;;;;5066287;28;42902;-90
2023/04/20 10:13:50;;;;;;;;;;;;;;;;;;5066063;28;42979;-88
2023/04/20 10:16:16;;;;;;;;;;;;;;;;;;5066579;28;42984;-91
2023/04/20 10:18:42;;;;;;;;;;;;;;;;;;5066163;28;42750;-91
2023/04/20 10:21:08;;;;;;;;;;;;;;;;;;5066066;28;43486;-91
2023/04/20 10:23:34;;;;;;;;;;;;;;;;;;5066074;28;42980;-90
2023/04/20 10:26:01;;;;;;;;;;;;;;;;;;5066300;28;43420;-91
2023/04/20 10:28:40;;;;;;;;;;;19.60;51.30;;;;;;5066467;28;42910;-90
2023/04/20 10:31:06;;;;;;;;;;;;;;;;;;5065777;28;42936;-87
2023/04/20 10:33:32;;;;;;;;;;;;;;;;;;5065809;28;42944;-87
2023/04/20 10:35:58;;;;;;;;;;;;;;;;;;5066147;28;42849;-85
2023/04/20 10:38:24;;;;;;;;;;;;;;;;;;5066395;28;42776;-90
2023/04/20 10:40:50;;;;;;;;;;;;;;;;;;5065784;28;43584;-87
2023/04/20 10:43:16;;;;;;;;;;;;;;;;;;5065988;28;43053;-91
2023/04/20 10:45:42;;;;;;;;;;;;;;;;;;5065422;28;44136;-90
2023/04/20 10:48:08;;;;;;;;;;;19.50;51.50;;;;;;5065571;28;42819;-90
2023/04/20 10:50:34;;;;;;;;;;;;;;;;;;5065663;28;43350;-91
2023/04/20 10:53:00;;;;;;;;;;;;;;;;;;5065315;28;42913;-90
2023/04/20 10:55:26;;;;;;;;;;;;;;;;;;5065983;28;42811;-91
2023/04/20 10:57:52;;;;;;;;;;;19.20;51.30;;;;;;5066356;28;42997;-91
2023/04/20 11:00:19;;;;;;;;;;;;;;;;;;5065158;28;42956;-91
2023/04/20 11:02:45;;;;;;;;;;;19.20;51.80;;;;;;5065349;28;43240;-91
2023/04/20 11:05:11;;;;;;;;;;;19.30;52.00;;;;;;5065643;28;42849;-91
2023/04/20 11:07:45;;;;;;;;;;;19.30;51.90;;;;;;5064173;28;42870;-91
2023/04/20 11:10:11;;;;;;;;;;;19.40;52.00;;;;;;5065539;28;44403;-92
2023/04/20 11:12:36;;;;;;;;;;;;;;;;;;5066194;28;42886;-89
2023/04/20 11:15:03;;;;;;;;;;;19.20;51.80;;;;;;5065996;28;42961;-91
2023/04/20 11:17:35;;;;;;;;;;;19.30;52.40;;;;;;5065952;28;42840;-86
2023/04/20 11:20:08;;;;;;;;;;;19.20;52.60;;;;;;5064469;28;63581;-92
2023/04/20 11:22:33;;;;;;;;;;;19.10;52.70;;;;;;5065504;28;42939;-91
2023/04/20 11:25:04;;;;;;;;;;;19.20;52.80;;;;;;5065006;28;43925;-91
2023/04/20 11:27:30;;;;;;;;;;;;;;;;;;5065066;28;43192;-92
2023/04/20 11:29:57;;;;;;;;;;;;;;;;;;5064516;28;42791;-92
2023/04/20 11:32:22;;;;;;;;;;;;;;;;;;5061322;28;44025;-84
2023/04/20 11:34:57;;;;;;;;;;;19.10;52.50;;;;;;5054649;28;43430;-89
2023/04/20 11:37:22;;;;;;;;;;;;;;;;;;5044002;28;42953;-89
2023/04/20 11:39:50;;;;;;;;;;;;;;;;;;5044489;28;43532;-88
2023/04/20 11:42:16;;;;;;;;;;;;;;;;;;5044253;28;42957;-87
2023/04/20 11:44:42;;;;;;;;;;;;;;;;;;5044628;28;43805;-86
2023/04/20 11:47:08;;;;;;;;;;;;;;;;;;5064870;28;42951;-86
2023/04/20 11:49:34;;;;;;;;;;;;;;;;;;5064473;28;43778;-85
2023/04/20 11:52:00;;;;;;;;;;;;;;;;;;5061646;28;42987;-85
2023/04/20 11:54:27;;;;;;;;;;;;;;;;;;5063738;28;43867;-85
2023/04/20 11:56:52;;;;;;;;;;;19.30;52.10;;;;;;5064127;28;43011;-85
2023/04/20 11:59:19;;;;;;;;;;;;;;;;;;5063335;28;44239;-84
2023/04/20 12:01:44;;;;;;;;;;;19.30;52.20;;;;;;5048900;28;42968;-85
2023/04/20 12:04:10;;;;;;;;;;;;;;;;;;5044300;28;43798;-85
2023/04/20 12:06:36;;;;;;;;;;;;;;;;;;5062134;28;43037;-86
2023/04/20 12:09:04;;;;;;;;;;;;;;;;;;5062816;28;43048;-86
2023/04/20 12:11:30;;;;;;;;;;;19.30;51.50;;;;;;5062870;28;43160;-83
2023/04/20 12:13:56;;;;;;;;;;;;;;;;;;5063325;28;42980;-82
2023/04/20 12:16:22;;;;;;;;;;;;;;;;;;5064248;28;42882;-82
2023/04/20 12:18:48;;;;;;;;;;;;;;;;;;5063853;28;43292;-84
2023/04/20 12:21:14;;;;;;;;;;;;;;;;;;5062811;28;42976;-81
2023/04/20 12:23:41;;;;;;;;;;;;;;;;;;5062166;28;43467;-85
2023/04/20 12:26:07;;;;;;;;;;;19.60;51.60;;;;;;5063438;28;43058;-82
2023/04/20 12:28:32;;;;;;;;;;;19.50;51.30;;;;;;5062455;28;43480;-82
2023/04/20 12:30:58;;;;;;;;;;;;;;;;;;5062954;28;43364;-84
2023/04/20 12:33:24;;;;;;;;;;;;;;;;;;5063834;28;42931;-82
2023/04/20 12:35:50;;;;;;;;;;;;;;;;;;5063663;28;42932;-85
2023/04/20 12:38:16;;;;;;;;;;;;;;;;;;5063976;28;43359;-86
2023/04/20 12:40:41;;;;;;;;;;;;;;;;;;5063092;28;42956;-84
2023/04/20 12:43:07;;;;;;;;;;;19.60;51.70;;;;;;5061766;28;45653;-81
2023/04/20 12:45:33;;;;;;;;;;;19.50;51.60;;;;;;5062375;28;43213;-83
2023/04/20 12:47:59;;;;;;;;;;;;;;;;;;5061529;28;42910;-80
2023/04/20 12:50:24;;;;;;;;;;;;;;;;;;5058733;28;43085;-77
2023/04/20 12:53:01;;;;;;;;;;;;;;;;;;5062640;28;43050;-84
2023/04/20 12:55:26;;;;;;;;;;;19.50;51.30;;;;;;5061970;28;42952;-84
2023/04/20 12:57:52;;;;;;;;;;;;;;;;;;5064138;28;43364;-85
2023/04/20 13:00:19;;;;;;;;;;;;;;;;;;5064990;28;43287;-92
2023/04/20 13:02:45;;;;;;;;;;;19.60;51.30;;;;;;5067639;28;44570;-91
2023/04/20 13:05:10;;;;;;;;;;;19.50;51.30;;;;;;5069113;28;43044;-95
2023/04/20 13:07:36;;;;;;;;;;;;;;;;;;5070419;28;42953;-92
2023/04/20 13:10:05;;;;;;;;;;;;;;;;;;5066889;28;42975;-89
2023/04/20 13:12:31;;;;;;;;;;;19.60;51.10;;;;;;5066920;28;42866;-88
2023/04/20 13:14:57;;;;;;;;;;;;;;;;;;5067494;28;42876;-90
2023/04/20 13:17:23;;;;;;;;;;;;;;;;;;5066540;28;43492;-84
2023/04/20 13:19:48;;;;;;;;;;;19.60;51.00;;;;;;5066932;28;42980;-86
2023/04/20 13:22:15;;;;;;;;;;;;;;;;;;5066603;28;43007;-88
2023/04/20 13:24:41;;;;;;;;;;;19.40;51.00;;;;;;5066966;28;43073;-87
2023/04/20 13:27:06;;;;;;;;;;;19.60;51.00;;;;;;5067866;28;43562;-88
2023/04/20 13:29:32;;;;;;;;;;;;;;;;;;5066731;28;42873;-87
2023/04/20 13:31:58;;;;;;;;;;;;;;;;;;5066685;28;43191;-88
2023/04/20 13:34:24;;;;;;;;;;;;;;;;;;5067174;28;43031;-86
2023/04/20 13:36:50;;;;;;;;;;;;;;;;;;5066434;28;43479;-81
2023/04/20 13:39:18;;;;;;;;;;;;;;;;;;5065913;28;43008;-84
2023/04/20 13:41:44;;;;;;;;;;;;;;;;;;5065717;28;43488;-83
2023/04/20 13:44:14;;;;;;;;;;;19.60;51.00;;;;;;5065891;28;42988;-85
2023/04/20 13:46:40;;;;;;;;;;;;;;;;;;5065050;28;43497;-82
2023/04/20 13:49:06;;;;;;;;;;;;;;;;;;5062190;28;43167;-91
2023/04/20 13:51:32;;;;;;;;;;;;;;;;;;5067197;28;43715;-89
2023/04/20 13:53:58;;;;;;;;;;;;;;;;;;5064863;28;43101;-87
2023/04/20 13:56:23;;;;;;;;;;;19.40;50.80;;;;;;5060652;28;43013;-84
2023/04/20 13:58:49;;;;;;;;;;;19.60;50.90;;;;;;5067988;28;42914;-88
2023/04/20 14:01:15;;;;;;;;;;;;;;;;;;5064428;28;43159;-91
2023/04/20 14:03:41;;;;;;;;;;;19.50;50.80;;;;;;5066037;28;43026;-88
2023/04/20 14:06:07;;;;;;;;;;;19.50;50.90;;;;;;5065913;28;43020;-82
2023/04/20 14:08:32;;;;;;;;;;;19.70;50.90;;;;;;5065305;28;43093;-90
2023/04/20 14:10:58;;;;;;;;;;;;;;;;;;5067896;28;43458;-91
2023/04/20 14:13:24;;;;;;;;;;;;;;;;;;5065907;28;42934;-90
2023/04/20 14:15:50;;;;;;;;;;;;;;;;;;5072644;28;42773;-91
2023/04/20 14:18:16;;;;;;;;;;;19.50;51.00;;;;;;5071499;28;42862;-92
2023/04/20 14:20:42;;;;;;;;;;;;;;;;;;5066604;28;43736;-87
2023/04/20 14:23:08;;;;;;;;;;;;;;;;;;5066777;28;43153;-93
2023/04/20 14:25:34;;;;;;;;;;;;;;;;;;5066752;28;43651;-92
2023/04/20 14:28:00;;;;;;;;;;;;;;;;;;5067279;28;43106;-91
2023/04/20 14:30:26;;;;;;;;;;;;;;;;;;5066726;28;43695;-95
2023/04/20 14:32:52;;;;;;;;;;;;;;;;;;5067081;28;43058;-81
2023/04/20 14:35:18;;;;;;;;;;;;;;;;;;5065845;28;43024;-94
2023/04/20 14:37:45;;;;;;;;;;;;;;;;;;5064829;28;43151;-81
2023/04/20 14:40:11;;;;;;;;;;;;;;;;;;5065811;28;43531;-88
2023/04/20 14:42:37;;;;;;;;;;;;;;;;;;5066569;28;42798;-80
2023/04/20 14:45:03;;;;;;;;;;;19.50;50.90;;;;;;5066391;28;44004;-78
2023/04/20 14:47:28;;;;;;;;;;;19.60;51.10;;;;;;5065995;28;42851;-82
2023/04/20 14:49:54;;;;;;;;;;;;;;;;;;5065677;28;43393;-87
2023/04/20 14:52:20;;;;;;;;;;;;;;;;;;5065946;28;43095;-93
2023/04/20 14:54:46;;;;;;;;;;;;;;;;;;5066184;28;43716;-86
2023/04/20 14:57:12;;;;;;;;;;;;;;;;;;5065577;28;43678;-83
2023/04/20 14:59:40;;;;;;;;;;;;;;;;;;5065186;28;43366;-84
2023/04/20 15:02:06;;;;;;;;;;;;;;;;;;5065602;28;43016;-80
2023/04/20 15:04:32;;;;;;;;;;;;;;;;;;5065469;28;42779;-86
2023/04/20 15:06:58;;;;;;;;;;;;;;;;;;5065799;28;42842;-85
2023/04/20 15:09:24;;;;;;;;;;;;;;;;;;5065458;28;42810;-79
2023/04/20 15:11:50;;;;;;;;;;;;;;;;;;5066071;28;43095;-77
2023/04/20 15:14:16;;;;;;;;;;;;;;;;;;5065973;28;42946;-80
2023/04/20 15:16:42;;;;;;;;;;;;;;;;;;5065793;28;42992;-90
2023/04/20 15:19:07;;;;;;;;;;;19.50;51.00;;;;;;5065796;28;42886;-89
2023/04/20 15:21:33;;;;;;;;;;;;;;;;;;5065617;28;42958;-79
2023/04/20 15:23:58;;;;;;;;;;;19.60;50.90;;;;;;5066070;28;43169;-79
2023/04/20 15:26:24;;;;;;;;;;;19.50;50.60;;;;;;5065656;28;42928;-88
2023/04/20 15:28:50;;;;;;;;;;;;;;;;;;5065322;28;43437;-89
2023/04/20 15:31:17;;;;;;;;;;;;;;;;;;5065891;28;42862;-87
2023/04/20 15:33:43;;;;;;;;;;;;;;;;;;5063624;28;43937;-84
2023/04/20 15:36:08;;;;;;;;;;;19.50;51.00;;;;;;5063859;28;42790;-88
2023/04/20 15:38:34;;;;;;;;;;;;;;;;;;5056163;28;42996;-83
2023/04/20 15:41:00;;;;;;;;;;;;;;;;;;5045418;28;43043;-87
2023/04/20 15:43:26;;;;;;;;;;;;;;;;;;5045201;28;42842;-88
2023/04/20 15:45:52;;;;;;;;;;;;;;;;;;5045090;28;43045;-88
2023/04/20 15:48:17;;;;;;;;;;;19.50;51.00;;;;;;5059654;28;44813;-78